Time;durP1;ratioP1;P1;durP2;ratioP2;P2;SDS_P1;SDS_P2;PMS_P1;PMS_P2;Temp;Humidity;BMP_temperature;BMP_pressure;BME280_temperature;BME280_humidity;BME280_pressure;Samples;Min_cycle;Max_cycle;Signal;HPM_P1;HPM_P2
2021/01/08 00:04:35;;;;;;;;;;;3.20;99.90;;;;;;10415971;28;20020;-67
2021/01/08 00:09:36;;;;;;;;;;;3.20;99.90;;;;;;10408736;28;20405;-67
2021/01/08 00:14:37;;;;;;;;;;;3.20;99.90;;;;;;10409341;28;20007;-67
2021/01/08 00:19:39;;;;;;;;;;;3.20;99.90;;;;;;10409493;28;20044;-67
2021/01/08 00:24:40;;;;;;;;;;;3.20;99.90;;;;;;10409022;28;20008;-67
2021/01/08 00:29:42;;;;;;;;;;;3.20;99.90;;;;;;10423662;28;19925;-67
2021/01/08 00:34:44;;;;;;;;;;;3.10;99.90;;;;;;10408155;28;19971;-67
2021/01/08 00:39:46;;;;;;;;;;;3.10;99.90;;;;;;10407974;28;19948;-67
2021/01/08 00:44:47;;;;;;;;;;;3.20;99.90;;;;;;10423234;28;19961;-67
2021/01/08 00:49:49;;;;;;;;;;;3.30;99.90;;;;;;10407921;28;20210;-67
2021/01/08 00:54:50;;;;;;;;;;;3.30;99.90;;;;;;10408233;28;19925;-67
2021/01/08 00:59:52;;;;;;;;;;;3.30;99.90;;;;;;10407211;28;19929;-67
2021/01/08 01:04:54;;;;;;;;;;;3.20;99.90;;;;;;10407631;28;19925;-67
2021/01/08 01:09:55;;;;;;;;;;;3.30;99.90;;;;;;10407512;28;20326;-67
2021/01/08 01:14:57;;;;;;;;;;;3.30;99.90;;;;;;10407474;28;20398;-67
2021/01/08 01:19:58;;;;;;;;;;;3.20;99.90;;;;;;10405483;28;20056;-67
2021/01/08 01:24:59;;;;;;;;;;;3.20;99.90;;;;;;10406164;28;19929;-67
2021/01/08 01:30:00;;;;;;;;;;;3.30;99.90;;;;;;10405930;28;20016;-67
2021/01/08 01:35:02;;;;;;;;;;;3.20;99.90;;;;;;10406148;28;20322;-67
2021/01/08 01:40:04;;;;;;;;;;;3.10;99.90;;;;;;10406331;28;20015;-67
2021/01/08 01:45:06;;;;;;;;;;;3.10;99.90;;;;;;10405348;28;20031;-67
2021/01/08 01:50:08;;;;;;;;;;;3.10;99.90;;;;;;10405474;28;19929;-67
2021/01/08 01:55:12;;;;;;;;;;;3.00;99.90;;;;;;10405078;28;19987;-67
2021/01/08 02:00:13;;;;;;;;;;;3.00;99.90;;;;;;10404973;28;20029;-67
2021/01/08 02:05:16;;;;;;;;;;;3.00;99.90;;;;;;10405332;28;20369;-67
2021/01/08 02:10:18;;;;;;;;;;;3.00;99.90;;;;;;10405011;28;20428;-66
2021/01/08 02:15:19;;;;;;;;;;;3.00;99.90;;;;;;10419932;28;19991;-67
2021/01/08 02:20:22;;;;;;;;;;;3.00;99.90;;;;;;10404042;28;20739;-67
2021/01/08 02:25:28;;;;;;;;;;;2.90;99.90;;;;;;10404469;28;20019;-67
2021/01/08 02:30:34;;;;;;;;;;;2.90;99.90;;;;;;10403837;28;20398;-67
2021/01/08 02:35:35;;;;;;;;;;;3.00;99.90;;;;;;10404346;28;19932;-67
2021/01/08 02:40:37;;;;;;;;;;;2.90;99.90;;;;;;10403491;28;20060;-67
2021/01/08 02:45:39;;;;;;;;;;;2.90;99.90;;;;;;10403630;28;19964;-67
2021/01/08 02:50:41;;;;;;;;;;;3.10;99.90;;;;;;10403356;28;19936;-67
2021/01/08 02:55:49;;;;;;;;;;;3.10;99.90;;;;;;10403811;28;19968;-67
2021/01/08 03:00:52;;;;;;;;;;;3.10;99.90;;;;;;10403678;28;20019;-67
2021/01/08 03:05:56;;;;;;;;;;;3.20;99.90;;;;;;10411237;28;20336;-67
2021/01/08 03:10:58;;;;;;;;;;;3.10;99.90;;;;;;10411605;28;19979;-67
2021/01/08 03:15:59;;;;;;;;;;;3.10;99.90;;;;;;10426424;28;19957;-67
2021/01/08 03:21:01;;;;;;;;;;;3.10;99.90;;;;;;10410803;28;19926;-67
2021/01/08 03:26:02;;;;;;;;;;;3.10;99.90;;;;;;10426525;28;19964;-67
2021/01/08 03:36:23;;;;;;;;;;;3.10;99.90;;;;;;10410451;28;19994;-67
2021/01/08 03:41:25;;;;;;;;;;;3.00;99.90;;;;;;10411417;28;20016;-67
2021/01/08 03:46:26;;;;;;;;;;;3.00;99.90;;;;;;10417799;28;19972;-67
2021/01/08 03:51:28;;;;;;;;;;;2.90;99.90;;;;;;10418062;28;20439;-67
2021/01/08 03:56:29;;;;;;;;;;;3.00;99.90;;;;;;10416819;28;20013;-67
2021/01/08 04:01:30;;;;;;;;;;;3.00;99.90;;;;;;10415717;28;19967;-67
2021/01/08 04:06:32;;;;;;;;;;;3.20;99.90;;;;;;10412171;28;20023;-67
2021/01/08 04:11:37;;;;;;;;;;;3.10;99.90;;;;;;10411771;28;19925;-67
2021/01/08 04:16:41;;;;;;;;;;;3.00;99.90;;;;;;10425854;28;19928;-67
2021/01/08 04:21:45;;;;;;;;;;;2.90;99.90;;;;;;10409289;28;19931;-67
2021/01/08 04:26:46;;;;;;;;;;;3.00;99.90;;;;;;10410021;28;20044;-67
2021/01/08 04:31:48;;;;;;;;;;;2.90;99.90;;;;;;10409284;28;19929;-67
2021/01/08 04:36:49;;;;;;;;;;;2.90;99.90;;;;;;10408698;28;20572;-67
2021/01/08 04:41:51;;;;;;;;;;;2.90;99.90;;;;;;10409564;28;20015;-67
2021/01/08 04:46:53;;;;;;;;;;;2.90;99.90;;;;;;10408633;28;19925;-67
2021/01/08 04:51:56;;;;;;;;;;;2.90;99.90;;;;;;10409047;28;19971;-67
2021/01/08 04:56:57;;;;;;;;;;;2.90;99.90;;;;;;10408721;28;20011;-67
2021/01/08 05:01:58;;;;;;;;;;;2.80;99.90;;;;;;10408024;28;20063;-67
2021/01/08 05:07:00;;;;;;;;;;;2.90;99.90;;;;;;10408624;28;19983;-67
2021/01/08 05:12:01;;;;;;;;;;;2.90;99.90;;;;;;10408385;28;19957;-67
2021/01/08 05:17:02;;;;;;;;;;;2.80;99.90;;;;;;10407597;28;19980;-67
2021/01/08 05:22:05;;;;;;;;;;;2.80;99.90;;;;;;10405574;28;19971;-67
2021/01/08 05:27:11;;;;;;;;;;;2.80;99.90;;;;;;10405166;28;20457;-67
2021/01/08 05:32:12;;;;;;;;;;;2.70;99.90;;;;;;10405050;28;19968;-67
2021/01/08 05:37:14;;;;;;;;;;;2.80;99.90;;;;;;10405156;28;19925;-67
2021/01/08 05:42:16;;;;;;;;;;;2.80;99.90;;;;;;10404657;28;19935;-67
2021/01/08 05:47:19;;;;;;;;;;;2.80;99.90;;;;;;10404502;28;19931;-67
2021/01/08 05:52:22;;;;;;;;;;;2.80;99.90;;;;;;10404709;28;19929;-67
2021/01/08 05:57:25;;;;;;;;;;;2.90;99.90;;;;;;10401290;28;20296;-67
2021/01/08 06:02:26;;;;;;;;;;;2.90;99.90;;;;;;10403659;28;19968;-67
2021/01/08 06:07:28;;;;;;;;;;;2.90;99.90;;;;;;10402683;28;20400;-67
2021/01/08 06:12:32;;;;;;;;;;;2.90;99.90;;;;;;10405472;28;19925;-67
2021/01/08 06:17:35;;;;;;;;;;;2.90;99.90;;;;;;10406048;28;19925;-67
2021/01/08 06:22:37;;;;;;;;;;;3.00;99.90;;;;;;10421429;28;19929;-67
2021/01/08 06:27:42;;;;;;;;;;;2.90;99.90;;;;;;10405481;28;19971;-66
2021/01/08 06:32:46;;;;;;;;;;;2.90;99.90;;;;;;10405798;28;20000;-67
2021/01/08 06:37:53;;;;;;;;;;;2.90;99.90;;;;;;10405367;28;20297;-67
2021/01/08 06:43:01;;;;;;;;;;;2.90;99.90;;;;;;10404974;28;19925;-67
2021/01/08 06:48:07;;;;;;;;;;;2.90;99.90;;;;;;10404909;28;19944;-67
2021/01/08 06:53:11;;;;;;;;;;;2.90;99.90;;;;;;10405321;28;20419;-67
2021/01/08 06:58:17;;;;;;;;;;;2.90;99.90;;;;;;10404681;28;19976;-67
2021/01/08 07:03:20;;;;;;;;;;;3.00;99.90;;;;;;10404832;28;20011;-67
2021/01/08 07:08:23;;;;;;;;;;;3.10;99.90;;;;;;10404507;28;19973;-67
2021/01/08 07:13:29;;;;;;;;;;;3.10;99.90;;;;;;10402893;28;19925;-67
2021/01/08 07:18:33;;;;;;;;;;;3.10;99.90;;;;;;10410413;28;20020;-66
2021/01/08 07:23:35;;;;;;;;;;;3.20;99.90;;;;;;10411647;28;19964;-67
2021/01/08 07:28:37;;;;;;;;;;;3.10;99.90;;;;;;10412253;28;19964;-66
2021/01/08 07:33:45;;;;;;;;;;;3.10;99.90;;;;;;10412163;28;20019;-67
2021/01/08 07:38:46;;;;;;;;;;;3.20;99.90;;;;;;10426869;28;20024;-66
2021/01/08 07:43:48;;;;;;;;;;;3.20;99.90;;;;;;10410931;28;20012;-67
2021/01/08 07:48:50;;;;;;;;;;;3.10;99.90;;;;;;10411680;28;19976;-66
2021/01/08 07:53:52;;;;;;;;;;;3.10;99.90;;;;;;10411501;28;20015;-66
2021/01/08 07:58:54;;;;;;;;;;;3.10;99.90;;;;;;10410742;28;19933;-66
2021/01/08 08:03:59;;;;;;;;;;;3.10;99.90;;;;;;10410552;28;19971;-66
2021/01/08 08:09:01;;;;;;;;;;;3.20;99.90;;;;;;10411004;28;20024;-66
2021/01/08 08:14:04;;;;;;;;;;;3.10;99.90;;;;;;10410476;28;19960;-66
2021/01/08 08:19:07;;;;;;;;;;;3.20;99.90;;;;;;10410248;28;20476;-66
2021/01/08 08:24:08;;;;;;;;;;;3.20;99.90;;;;;;10410440;28;20015;-67
2021/01/08 08:29:09;;;;;;;;;;;3.30;99.90;;;;;;10408663;28;19925;-67
2021/01/08 08:34:11;;;;;;;;;;;3.40;99.90;;;;;;10410094;28;19925;-66
2021/01/08 08:39:14;;;;;;;;;;;3.50;99.90;;;;;;10409511;28;20036;-66
2021/01/08 08:44:16;;;;;;;;;;;3.50;99.90;;;;;;10408613;28;20413;-67
2021/01/08 08:49:24;;;;;;;;;;;3.60;99.90;;;;;;10409254;28;19995;-67
2021/01/08 08:54:26;;;;;;;;;;;3.60;99.90;;;;;;10408685;28;19925;-67
2021/01/08 08:59:36;;;;;;;;;;;3.70;99.90;;;;;;10409316;28;20015;-67
2021/01/08 09:04:54;;;;;;;;;;;3.80;99.90;;;;;;10408958;28;19925;-66
2021/01/08 09:10:00;;;;;;;;;;;3.80;99.90;;;;;;10408201;28;20349;-66
2021/01/08 09:15:20;;;;;;;;;;;3.90;99.90;;;;;;10407572;28;20032;-67
2021/01/08 09:20:25;;;;;;;;;;;3.90;99.90;;;;;;10407730;28;19965;-66
2021/01/08 09:25:26;;;;;;;;;;;4.00;99.90;;;;;;10407358;28;20055;-67
2021/01/08 09:30:27;;;;;;;;;;;4.00;99.90;;;;;;10407892;28;20020;-67
2021/01/08 09:35:31;;;;;;;;;;;4.10;99.90;;;;;;10407393;28;20151;-67
2021/01/08 09:40:34;;;;;;;;;;;4.10;99.90;;;;;;10406128;28;19991;-67
2021/01/08 09:45:36;;;;;;;;;;;4.20;99.90;;;;;;10406936;28;20241;-66
2021/01/08 09:50:39;;;;;;;;;;;4.20;99.90;;;;;;10406546;28;19982;-67
2021/01/08 09:55:40;;;;;;;;;;;4.30;99.90;;;;;;10406405;28;20405;-66
2021/01/08 10:00:42;;;;;;;;;;;4.60;99.90;;;;;;10404725;28;20047;-66
2021/01/08 10:05:44;;;;;;;;;;;4.60;99.90;;;;;;10406773;28;19929;-67
2021/01/08 10:10:45;;;;;;;;;;;4.70;99.90;;;;;;10406456;28;19968;-66
2021/01/08 10:15:52;;;;;;;;;;;4.70;99.90;;;;;;10405243;28;19979;-67
2021/01/08 10:20:54;;;;;;;;;;;4.50;99.90;;;;;;10405763;28;20018;-66
2021/01/08 10:26:14;;;;;;;;;;;4.60;99.90;;;;;;10405316;28;19972;-66
2021/01/08 10:31:16;;;;;;;;;;;4.50;99.90;;;;;;10405152;28;19925;-67
2021/01/08 10:36:17;;;;;;;;;;;4.50;99.90;;;;;;10405051;28;20301;-67
2021/01/08 10:41:19;;;;;;;;;;;4.60;99.90;;;;;;10403219;28;20017;-66
2021/01/08 10:46:21;;;;;;;;;;;4.70;99.90;;;;;;10399763;28;19931;-67
2021/01/08 10:51:29;;;;;;;;;;;4.80;99.90;;;;;;10393213;28;19929;-67
2021/01/08 10:56:30;;;;;;;;;;;5.00;99.90;;;;;;10403484;28;19947;-68
2021/01/08 11:01:44;;;;;;;;;;;5.20;99.90;;;;;;10404196;28;19998;-68
2021/01/08 11:06:46;;;;;;;;;;;5.40;99.90;;;;;;10401500;28;19929;-68
2021/01/08 11:11:48;;;;;;;;;;;5.20;99.90;;;;;;10396742;28;20004;-68
2021/01/08 11:16:49;;;;;;;;;;;5.10;99.90;;;;;;10402054;28;20363;-68
2021/01/08 11:21:51;;;;;;;;;;;5.30;99.90;;;;;;10401071;28;20476;-68
2021/01/08 11:26:53;;;;;;;;;;;5.40;99.90;;;;;;10402834;28;19929;-68
2021/01/08 11:31:54;;;;;;;;;;;5.20;99.90;;;;;;10398717;28;20020;-68
2021/01/08 11:36:56;;;;;;;;;;;5.20;99.90;;;;;;10402456;28;20246;-68
2021/01/08 11:42:10;;;;;;;;;;;5.20;99.90;;;;;;10387898;28;19977;-68
2021/01/08 11:47:11;;;;;;;;;;;5.20;99.90;;;;;;10399309;28;19932;-68
2021/01/08 11:52:13;;;;;;;;;;;5.30;99.90;;;;;;10401943;28;20409;-68
2021/01/08 11:57:14;;;;;;;;;;;5.30;99.90;;;;;;10401509;28;19925;-68
2021/01/08 12:02:15;;;;;;;;;;;5.10;99.90;;;;;;10401479;28;19976;-68
2021/01/08 12:07:17;;;;;;;;;;;5.20;99.90;;;;;;10408928;28;20047;-68
2021/01/08 12:12:19;;;;;;;;;;;5.00;99.90;;;;;;10409297;28;19932;-68
2021/01/08 12:17:20;;;;;;;;;;;5.20;99.90;;;;;;10408030;28;19972;-68
2021/01/08 12:22:21;;;;;;;;;;;5.00;99.90;;;;;;10408883;28;20385;-68
2021/01/08 12:27:25;;;;;;;;;;;5.10;99.90;;;;;;10407915;28;20305;-68
2021/01/08 12:32:26;;;;;;;;;;;5.40;99.90;;;;;;10408125;28;19955;-68
2021/01/08 12:37:28;;;;;;;;;;;5.50;99.90;;;;;;10392273;28;19931;-68
2021/01/08 12:42:29;;;;;;;;;;;5.50;99.90;;;;;;10405788;28;20368;-68
2021/01/08 12:47:31;;;;;;;;;;;5.50;99.90;;;;;;10405024;28;19925;-68
2021/01/08 12:52:35;;;;;;;;;;;5.40;99.90;;;;;;10407982;28;20377;-68
2021/01/08 12:57:37;;;;;;;;;;;5.40;99.90;;;;;;10407381;28;19933;-68
2021/01/08 13:02:38;;;;;;;;;;;5.50;99.90;;;;;;10406645;28;20281;-68
2021/01/08 13:07:41;;;;;;;;;;;5.50;99.90;;;;;;10407037;28;20020;-68
2021/01/08 13:12:42;;;;;;;;;;;5.60;99.90;;;;;;10406923;28;19929;-68
2021/01/08 13:17:43;;;;;;;;;;;5.60;99.90;;;;;;10406155;28;19932;-68
2021/01/08 13:22:44;;;;;;;;;;;5.60;99.90;;;;;;10405331;28;20292;-68
2021/01/08 13:27:46;;;;;;;;;;;5.60;99.90;;;;;;10404603;28;20339;-68
2021/01/08 13:32:56;;;;;;;;;;;5.50;99.90;;;;;;10405724;28;19932;-68
2021/01/08 13:37:58;;;;;;;;;;;5.30;99.90;;;;;;10405485;28;19925;-68
2021/01/08 13:42:59;;;;;;;;;;;5.20;99.90;;;;;;10405570;28;20393;-69
2021/01/08 13:48:04;;;;;;;;;;;5.10;99.90;;;;;;10402013;28;20344;-68
2021/01/08 13:53:07;;;;;;;;;;;5.00;99.90;;;;;;10431629;28;20023;-68
2021/01/08 13:58:08;;;;;;;;;;;4.90;99.90;;;;;;10404253;28;19933;-68
2021/01/08 14:03:09;;;;;;;;;;;4.90;99.90;;;;;;10404716;28;19986;-68
2021/01/08 14:08:11;;;;;;;;;;;4.80;99.90;;;;;;10404086;28;20020;-68
2021/01/08 14:13:12;;;;;;;;;;;4.90;99.90;;;;;;10403916;28;19975;-68
2021/01/08 14:18:14;;;;;;;;;;;5.00;99.90;;;;;;10403418;28;20011;-68
2021/01/08 14:23:15;;;;;;;;;;;5.00;99.90;;;;;;10403244;28;20377;-68
2021/01/08 14:28:16;;;;;;;;;;;5.00;99.90;;;;;;10402926;28;19941;-68
2021/01/08 14:33:18;;;;;;;;;;;5.00;99.90;;;;;;10403769;28;20011;-68
2021/01/08 14:38:19;;;;;;;;;;;5.00;99.90;;;;;;10402353;28;19932;-68
2021/01/08 14:43:20;;;;;;;;;;;4.90;99.90;;;;;;10400100;28;19928;-68
2021/01/08 14:48:22;;;;;;;;;;;5.00;99.90;;;;;;10400262;28;19956;-68
2021/01/08 14:53:24;;;;;;;;;;;4.90;99.90;;;;;;10384409;28;19929;-68
2021/01/08 14:58:26;;;;;;;;;;;4.90;99.90;;;;;;10388847;28;19933;-68
2021/01/08 15:03:27;;;;;;;;;;;4.90;99.90;;;;;;10402086;28;19975;-68
2021/01/08 15:08:29;;;;;;;;;;;5.00;99.90;;;;;;10402929;28;20203;-68
2021/01/08 15:13:30;;;;;;;;;;;4.90;99.90;;;;;;10403014;28;20432;-68
2021/01/08 15:18:31;;;;;;;;;;;4.90;99.90;;;;;;10418122;28;20016;-68
2021/01/08 15:23:33;;;;;;;;;;;4.80;99.90;;;;;;10402525;28;19969;-68
2021/01/08 15:28:35;;;;;;;;;;;4.70;99.90;;;;;;10401522;28;19969;-68
2021/01/08 15:33:36;;;;;;;;;;;4.70;99.90;;;;;;10402617;28;20023;-68
2021/01/08 15:38:39;;;;;;;;;;;4.80;99.90;;;;;;10404677;28;19980;-68
2021/01/08 15:43:40;;;;;;;;;;;4.80;99.90;;;;;;10410810;28;19983;-68
2021/01/08 15:48:42;;;;;;;;;;;4.80;99.90;;;;;;10407605;28;20015;-68
2021/01/08 15:53:43;;;;;;;;;;;4.70;99.90;;;;;;10411996;28;19953;-68
2021/01/08 15:58:44;;;;;;;;;;;4.80;99.90;;;;;;10409513;28;20380;-68
2021/01/08 16:03:46;;;;;;;;;;;4.80;99.90;;;;;;10408093;28;20029;-68
2021/01/08 16:08:48;;;;;;;;;;;4.70;99.90;;;;;;10405954;28;20011;-68
2021/01/08 16:13:49;;;;;;;;;;;4.60;99.90;;;;;;10408788;28;20447;-68
2021/01/08 16:18:51;;;;;;;;;;;4.60;99.90;;;;;;10407866;28;19925;-68
2021/01/08 16:23:53;;;;;;;;;;;4.70;99.90;;;;;;10408297;28;20418;-68
2021/01/08 16:28:55;;;;;;;;;;;4.70;99.90;;;;;;10409352;28;19987;-68
2021/01/08 16:33:56;;;;;;;;;;;4.70;99.90;;;;;;10410807;28;19971;-68
2021/01/08 16:38:57;;;;;;;;;;;4.60;99.90;;;;;;10409323;28;19984;-66
2021/01/08 16:43:58;;;;;;;;;;;4.60;99.90;;;;;;10409293;28;19972;-66
2021/01/08 16:49:00;;;;;;;;;;;4.50;99.90;;;;;;10408452;28;20012;-66
2021/01/08 16:54:01;;;;;;;;;;;4.40;99.90;;;;;;10408947;28;19964;-66
2021/01/08 16:59:02;;;;;;;;;;;4.20;99.90;;;;;;10407472;28;19981;-65
2021/01/08 17:04:05;;;;;;;;;;;4.20;99.90;;;;;;10407213;28;20470;-65
2021/01/08 17:09:06;;;;;;;;;;;4.20;99.90;;;;;;10409081;28;20035;-66
2021/01/08 17:14:08;;;;;;;;;;;4.20;99.90;;;;;;10408558;28;19933;-66
2021/01/08 17:19:10;;;;;;;;;;;4.20;99.90;;;;;;10408522;28;20332;-66
2021/01/08 17:24:11;;;;;;;;;;;4.20;99.90;;;;;;10408555;28;19929;-66
2021/01/08 17:29:13;;;;;;;;;;;4.10;99.90;;;;;;10407689;28;19980;-66
2021/01/08 17:34:15;;;;;;;;;;;4.10;99.90;;;;;;10408037;28;20024;-65
2021/01/08 17:39:16;;;;;;;;;;;4.20;99.90;;;;;;10406180;28;20445;-66
2021/01/08 17:44:25;;;;;;;;;;;4.30;99.90;;;;;;10399845;28;19925;-65
2021/01/08 17:49:26;;;;;;;;;;;4.40;99.90;;;;;;10406792;28;20028;-66
2021/01/08 17:54:29;;;;;;;;;;;4.40;99.90;;;;;;10421099;28;20007;-66
2021/01/08 17:59:30;;;;;;;;;;;4.50;99.90;;;;;;10406320;28;20019;-65
2021/01/08 18:04:32;;;;;;;;;;;4.50;99.90;;;;;;10406598;28;19940;-65
2021/01/08 18:09:33;;;;;;;;;;;4.50;99.90;;;;;;10438655;28;19925;-66
2021/01/08 18:14:36;;;;;;;;;;;4.40;99.90;;;;;;10406320;28;20461;-65
2021/01/08 18:19:37;;;;;;;;;;;4.40;99.90;;;;;;10438844;28;20019;-65
2021/01/08 18:24:39;;;;;;;;;;;4.40;99.90;;;;;;10405987;28;19971;-66
2021/01/08 18:29:40;;;;;;;;;;;4.30;99.90;;;;;;10405821;28;19925;-65
2021/01/08 18:34:41;;;;;;;;;;;4.30;99.90;;;;;;10406415;28;19925;-65
2021/01/08 18:39:43;;;;;;;;;;;4.30;99.90;;;;;;10404719;28;20504;-66
2021/01/08 18:44:44;;;;;;;;;;;4.40;99.90;;;;;;10404427;28;19925;-65
2021/01/08 18:49:45;;;;;;;;;;;4.40;99.90;;;;;;10419925;28;20722;-65
2021/01/08 18:54:47;;;;;;;;;;;4.40;99.90;;;;;;10404264;28;20044;-65
2021/01/08 18:59:48;;;;;;;;;;;4.50;99.90;;;;;;10404398;28;20026;-65
2021/01/08 19:04:49;;;;;;;;;;;4.50;99.90;;;;;;10419926;28;19976;-66
2021/01/08 19:09:51;;;;;;;;;;;4.40;99.90;;;;;;10402712;28;19975;-65
2021/01/08 19:14:53;;;;;;;;;;;4.30;99.90;;;;;;10409377;28;20173;-66
2021/01/08 19:19:54;;;;;;;;;;;4.20;99.90;;;;;;10409709;28;20449;-65
2021/01/08 19:24:55;;;;;;;;;;;4.20;99.90;;;;;;10411382;28;20762;-66
2021/01/08 19:29:57;;;;;;;;;;;4.30;99.90;;;;;;10412097;28;20479;-66
2021/01/08 19:34:58;;;;;;;;;;;4.30;99.90;;;;;;10412107;28;19925;-65
2021/01/08 19:40:00;;;;;;;;;;;4.20;99.90;;;;;;10411968;28;20431;-65
2021/01/08 19:45:01;;;;;;;;;;;4.20;99.90;;;;;;10412122;28;19994;-65
2021/01/08 19:50:02;;;;;;;;;;;4.20;99.90;;;;;;10412193;28;19991;-65
2021/01/08 19:55:05;;;;;;;;;;;4.10;99.90;;;;;;10412848;28;19931;-65
2021/01/08 20:00:07;;;;;;;;;;;4.20;99.90;;;;;;10411653;28;19925;-65
2021/01/08 20:05:10;;;;;;;;;;;4.20;99.90;;;;;;10410730;28;19940;-66
2021/01/08 20:10:12;;;;;;;;;;;4.20;99.90;;;;;;10410075;28;20144;-65
2021/01/08 20:15:16;;;;;;;;;;;4.30;99.90;;;;;;10411179;28;19929;-66
2021/01/08 20:20:17;;;;;;;;;;;4.30;99.90;;;;;;10410121;28;20016;-65
2021/01/08 20:25:19;;;;;;;;;;;4.20;99.90;;;;;;10409010;28;19964;-66
2021/01/08 20:30:20;;;;;;;;;;;4.30;99.90;;;;;;10408030;28;20011;-65
2021/01/08 20:35:22;;;;;;;;;;;4.40;99.90;;;;;;10409225;28;20386;-65
2021/01/08 20:40:23;;;;;;;;;;;4.30;99.90;;;;;;10408458;28;20025;-66
2021/01/08 20:45:24;;;;;;;;;;;4.30;99.90;;;;;;10408773;28;19968;-66
2021/01/08 20:50:26;;;;;;;;;;;4.30;99.90;;;;;;10408754;28;20333;-65
2021/01/08 20:55:27;;;;;;;;;;;4.40;99.90;;;;;;10408954;28;19964;-65
2021/01/08 21:00:30;;;;;;;;;;;4.30;99.90;;;;;;10406663;28;20032;-65
2021/01/08 21:05:33;;;;;;;;;;;4.30;99.90;;;;;;10407221;28;19935;-65
2021/01/08 21:10:34;;;;;;;;;;;4.20;99.90;;;;;;10407178;28;19964;-65
2021/01/08 21:15:36;;;;;;;;;;;4.20;99.90;;;;;;10406671;28;19964;-65
2021/01/08 21:20:37;;;;;;;;;;;4.10;99.90;;;;;;10406309;28;20361;-65
2021/01/08 21:25:38;;;;;;;;;;;4.10;99.90;;;;;;10406021;28;20106;-65
2021/01/08 21:30:40;;;;;;;;;;;3.90;99.90;;;;;;10404502;28;20321;-66
2021/01/08 21:35:41;;;;;;;;;;;3.70;99.90;;;;;;10403077;28;19925;-66
2021/01/08 21:40:43;;;;;;;;;;;3.50;99.90;;;;;;10404118;28;20272;-65
2021/01/08 21:45:44;;;;;;;;;;;3.40;99.90;;;;;;10404187;28;20433;-66
2021/01/08 21:50:46;;;;;;;;;;;3.30;99.90;;;;;;10402898;28;20374;-65
2021/01/08 21:55:48;;;;;;;;;;;3.40;99.90;;;;;;10403807;28;19929;-65
2021/01/08 22:00:49;;;;;;;;;;;3.40;99.90;;;;;;10405113;28;20367;-65
2021/01/08 22:05:51;;;;;;;;;;;3.30;99.90;;;;;;10405682;28;20350;-65
2021/01/08 22:10:52;;;;;;;;;;;3.30;99.90;;;;;;10404666;28;19968;-65
2021/01/08 22:15:53;;;;;;;;;;;3.30;99.90;;;;;;10404316;28;20309;-65
2021/01/08 22:20:57;;;;;;;;;;;3.30;99.90;;;;;;10403966;28;20421;-65
2021/01/08 22:25:58;;;;;;;;;;;3.20;99.90;;;;;;10404911;28;19925;-65
2021/01/08 22:31:00;;;;;;;;;;;3.10;99.90;;;;;;10403841;28;20019;-65
2021/01/08 22:36:09;;;;;;;;;;;3.20;99.90;;;;;;10404031;28;19925;-65
2021/01/08 22:41:15;;;;;;;;;;;3.10;99.90;;;;;;10404506;28;19979;-65
2021/01/08 22:46:18;;;;;;;;;;;2.90;99.90;;;;;;10403128;28;19968;-65
2021/01/08 22:51:23;;;;;;;;;;;2.90;99.90;;;;;;10403780;28;19940;-65
2021/01/08 22:56:25;;;;;;;;;;;2.90;99.90;;;;;;10403599;28;19960;-65
2021/01/08 23:01:28;;;;;;;;;;;2.90;99.90;;;;;;10403140;28;20063;-65
2021/01/08 23:06:29;;;;;;;;;;;3.00;99.90;;;;;;10403442;28;20281;-65
2021/01/08 23:11:31;;;;;;;;;;;3.10;99.90;;;;;;10403805;28;20267;-65
2021/01/08 23:16:32;;;;;;;;;;;3.10;99.90;;;;;;10403132;28;20330;-65
2021/01/08 23:21:34;;;;;;;;;;;3.20;99.90;;;;;;10403259;28;19929;-65
2021/01/08 23:26:35;;;;;;;;;;;3.20;99.90;;;;;;10403452;28;19957;-65
2021/01/08 23:31:37;;;;;;;;;;;3.20;99.90;;;;;;10402523;28;19956;-65
2021/01/08 23:36:39;;;;;;;;;;;3.10;99.90;;;;;;10402696;28;20421;-65
2021/01/08 23:41:42;;;;;;;;;;;3.10;99.90;;;;;;10401975;28;19925;-65
2021/01/08 23:46:44;;;;;;;;;;;3.10;99.90;;;;;;10402351;28;19932;-65
2021/01/08 23:51:46;;;;;;;;;;;3.20;99.90;;;;;;10403362;28;19926;-65
2021/01/08 23:56:47;;;;;;;;;;;3.30;99.90;;;;;;10401652;28;20007;-65
